createdAt,value
2022-10-19T00:00:57.615Z,34.10
2022-10-19T00:01:57.629Z,35.90
2022-10-19T00:02:57.595Z,36.10
2022-10-19T00:03:57.597Z,32.60
2022-10-19T00:04:57.620Z,33.70
2022-10-19T00:05:57.566Z,33.20
2022-10-19T00:06:57.596Z,36.30
2022-10-19T00:07:57.553Z,35.50
2022-10-19T00:08:57.556Z,36.60
2022-10-19T00:09:57.556Z,38.70
2022-10-19T00:10:57.526Z,32.70
2022-10-19T00:11:57.528Z,35.20
2022-10-19T00:12:57.512Z,40.10
2022-10-19T00:13:57.510Z,39.60
2022-10-19T00:14:57.506Z,37.00
2022-10-19T00:15:57.965Z,37.20
2022-10-19T00:16:57.486Z,37.00
2022-10-19T00:17:57.480Z,41.40
2022-10-19T00:18:57.478Z,30.60
2022-10-19T00:19:57.467Z,35.50
2022-10-19T00:20:58.116Z,38.70
2022-10-19T00:21:57.469Z,29.70
2022-10-19T00:22:57.470Z,41.30
2022-10-19T00:23:57.449Z,39.90
2022-10-19T00:24:57.427Z,35.80
2022-10-19T00:25:57.424Z,26.50
2022-10-19T00:26:57.446Z,52.70
2022-10-19T00:27:57.408Z,48.50
2022-10-19T00:28:57.491Z,56.00
2022-10-19T00:29:57.446Z,40.60
2022-10-19T00:30:57.385Z,52.30
2022-10-19T00:31:57.386Z,51.80
2022-10-19T00:32:57.381Z,57.30
2022-10-19T00:33:57.392Z,52.60
2022-10-19T00:34:57.396Z,47.70
2022-10-19T00:35:57.363Z,44.60
2022-10-19T00:36:57.341Z,63.50
2022-10-19T00:37:57.347Z,62.50
2022-10-19T00:38:57.374Z,58.70
2022-10-19T00:39:57.326Z,51.20
2022-10-19T00:40:57.319Z,45.80
2022-10-19T00:41:57.322Z,56.50
2022-10-19T00:42:57.299Z,43.00
2022-10-19T00:43:57.314Z,51.10
2022-10-19T00:44:57.281Z,41.80
2022-10-19T00:45:57.274Z,48.80
2022-10-19T00:46:57.396Z,51.40
2022-10-19T00:47:57.266Z,43.40
2022-10-19T00:48:57.261Z,41.60
2022-10-19T00:49:57.884Z,46.40
2022-10-19T00:50:57.244Z,59.50
2022-10-19T00:51:57.797Z,56.60
2022-10-19T00:52:57.433Z,52.30
2022-10-19T00:53:58.151Z,54.60
2022-10-19T00:54:57.253Z,50.10
2022-10-19T00:55:57.218Z,49.40
2022-10-19T00:56:57.219Z,39.80
2022-10-19T00:57:57.216Z,54.60
2022-10-19T00:58:57.248Z,50.00
2022-10-19T00:59:57.181Z,52.10
2022-10-19T01:00:57.269Z,53.00
2022-10-19T01:01:57.167Z,53.60
2022-10-19T01:02:57.169Z,50.90
2022-10-19T01:03:57.151Z,48.70
2022-10-19T01:04:57.167Z,53.50
2022-10-19T01:05:57.149Z,47.50
2022-10-19T01:06:57.135Z,54.70
2022-10-19T01:07:57.119Z,52.40
2022-10-19T01:08:57.126Z,39.80
2022-10-19T01:09:57.131Z,35.00
2022-10-19T01:10:57.117Z,43.10
2022-10-19T01:11:57.523Z,40.60
2022-10-19T01:12:57.098Z,38.70
2022-10-19T01:13:57.075Z,33.20
2022-10-19T01:14:57.072Z,41.60
2022-10-19T01:15:57.085Z,37.80
2022-10-19T01:16:57.061Z,33.10
2022-10-19T01:17:57.053Z,40.80
2022-10-19T01:18:57.053Z,35.40
2022-10-19T01:19:57.042Z,41.30
2022-10-19T01:20:57.025Z,37.10
2022-10-19T01:21:57.035Z,38.90
2022-10-19T01:22:57.003Z,35.50
2022-10-19T01:23:57.003Z,38.20
2022-10-19T01:24:57.042Z,37.80
2022-10-19T01:25:56.993Z,32.00
2022-10-19T01:26:57.017Z,34.10
2022-10-19T01:27:56.970Z,33.10
2022-10-19T01:28:57.006Z,32.30
2022-10-19T01:29:56.962Z,36.50
2022-10-19T01:30:56.942Z,36.90
2022-10-19T01:31:56.958Z,39.40
2022-10-19T01:32:56.930Z,35.10
2022-10-19T01:34:56.927Z,31.80
2022-10-19T01:35:56.906Z,36.20
2022-10-19T01:36:56.902Z,35.80
2022-10-19T01:37:56.913Z,35.80
2022-10-19T01:38:56.885Z,37.30
2022-10-19T01:39:56.884Z,40.90
2022-10-19T01:40:56.888Z,34.50
2022-10-19T01:41:56.861Z,35.70
2022-10-19T01:42:56.904Z,37.80
2022-10-19T01:43:56.847Z,38.30
2022-10-19T01:44:56.844Z,37.20
2022-10-19T01:45:56.842Z,36.40
2022-10-19T01:46:56.841Z,37.10
2022-10-19T01:47:56.852Z,38.30
2022-10-19T01:48:56.877Z,38.40
2022-10-19T01:49:56.954Z,41.00
2022-10-19T01:50:56.808Z,34.50
2022-10-19T01:52:56.807Z,36.20
2022-10-19T01:53:56.789Z,38.50
2022-10-19T01:54:56.874Z,39.00
2022-10-19T01:55:56.766Z,35.70
2022-10-19T01:56:56.766Z,35.60
2022-10-19T01:57:56.836Z,35.70
2022-10-19T01:58:56.778Z,36.90
2022-10-19T01:59:56.747Z,38.80
2022-10-19T02:00:56.897Z,36.00
2022-10-19T02:01:57.002Z,42.00
2022-10-19T02:02:56.721Z,38.70
2022-10-19T02:03:56.723Z,36.60
2022-10-19T02:04:56.719Z,34.30
2022-10-19T02:05:56.701Z,38.10
2022-10-19T02:06:56.706Z,42.00
2022-10-19T02:07:56.697Z,31.00
2022-10-19T02:08:56.678Z,39.10
2022-10-19T02:09:56.697Z,46.30
2022-10-19T02:10:56.677Z,42.90
2022-10-19T02:11:57.252Z,35.10
2022-10-19T02:12:56.656Z,43.20
2022-10-19T02:13:56.658Z,46.00
2022-10-19T02:14:56.671Z,42.10
2022-10-19T02:15:56.638Z,30.90
2022-10-19T02:16:56.651Z,37.50
2022-10-19T02:17:56.640Z,32.80
2022-10-19T02:18:56.618Z,35.40
2022-10-19T02:19:56.800Z,36.80
2022-10-19T02:20:56.597Z,45.70
2022-10-19T02:21:56.606Z,47.90
2022-10-19T02:22:56.606Z,46.50
2022-10-19T02:23:56.584Z,37.80
2022-10-19T02:24:56.573Z,42.10
2022-10-19T02:25:56.598Z,37.60
2022-10-19T02:26:56.564Z,37.60
2022-10-19T02:27:56.556Z,35.70
2022-10-19T02:28:56.576Z,45.90
2022-10-19T02:29:56.542Z,39.80
2022-10-19T02:30:56.563Z,44.70
2022-10-19T02:31:56.545Z,51.90
2022-10-19T02:32:56.523Z,41.80
2022-10-19T02:33:56.530Z,37.80
2022-10-19T02:34:56.502Z,27.30
2022-10-19T02:35:56.501Z,29.40
2022-10-19T02:36:56.511Z,30.80
2022-10-19T02:37:56.495Z,26.60
2022-10-19T02:38:56.478Z,28.80
2022-10-19T02:39:56.480Z,32.60
2022-10-19T02:40:56.463Z,27.70
2022-10-19T02:41:56.448Z,27.00
2022-10-19T02:42:56.463Z,31.90
2022-10-19T02:43:56.625Z,30.50
2022-10-19T02:44:56.431Z,37.80
2022-10-19T02:45:56.438Z,34.50
2022-10-19T02:46:56.436Z,32.00
2022-10-19T02:47:56.409Z,34.10
2022-10-19T02:48:56.425Z,28.60
2022-10-19T02:49:56.395Z,29.90
2022-10-19T02:50:56.411Z,35.40
2022-10-19T02:51:56.383Z,25.60
2022-10-19T02:52:56.381Z,33.30
2022-10-19T02:53:57.401Z,36.40
2022-10-19T02:54:56.377Z,34.60
2022-10-19T02:55:56.381Z,34.00
2022-10-19T02:56:56.349Z,38.00
2022-10-19T02:57:56.332Z,36.10
2022-10-19T02:58:56.345Z,37.80
2022-10-19T02:59:56.320Z,36.80
2022-10-19T03:00:56.385Z,31.20
2022-10-19T03:01:56.564Z,29.90
2022-10-19T03:02:56.327Z,34.50
2022-10-19T03:03:56.302Z,28.90
2022-10-19T03:04:56.310Z,35.10
2022-10-19T03:05:56.277Z,32.10
2022-10-19T03:06:56.297Z,33.80
2022-10-19T03:07:56.267Z,35.50
2022-10-19T03:08:56.263Z,29.60
2022-10-19T03:09:56.274Z,30.60
2022-10-19T03:10:56.257Z,32.40
2022-10-19T03:11:56.349Z,35.70
2022-10-19T03:12:56.246Z,32.80
2022-10-19T03:13:56.241Z,30.00
2022-10-19T03:14:56.228Z,29.80
2022-10-19T03:15:56.223Z,34.10
2022-10-19T03:16:56.338Z,34.20
2022-10-19T03:17:56.223Z,34.40
2022-10-19T03:18:56.736Z,33.70
2022-10-19T03:19:56.183Z,35.90
2022-10-19T03:20:58.867Z,28.40
2022-10-19T03:21:56.165Z,24.00
2022-10-19T03:22:56.189Z,29.60
2022-10-19T03:23:56.164Z,28.10
2022-10-19T03:24:56.143Z,27.50
2022-10-19T03:25:56.134Z,28.40
2022-10-19T03:26:56.126Z,28.90
2022-10-19T03:27:56.125Z,26.00
2022-10-19T03:28:56.166Z,35.70
2022-10-19T03:29:56.119Z,33.70
2022-10-19T03:30:56.123Z,25.50
2022-10-19T03:31:56.095Z,32.30
2022-10-19T03:32:56.090Z,35.00
2022-10-19T03:33:56.115Z,30.60
2022-10-19T03:34:56.104Z,29.50
2022-10-19T03:35:56.067Z,28.00
2022-10-19T03:36:56.079Z,24.40
2022-10-19T03:37:56.052Z,25.70
2022-10-19T03:38:56.050Z,25.40
2022-10-19T03:39:56.038Z,26.90
2022-10-19T03:40:56.042Z,26.80
2022-10-19T03:41:56.047Z,26.00
2022-10-19T03:42:56.025Z,31.20
2022-10-19T03:43:56.076Z,28.20
2022-10-19T03:44:56.003Z,30.40
2022-10-19T03:45:56.008Z,25.70
2022-10-19T03:46:56.767Z,31.20
2022-10-19T03:47:55.984Z,29.60
2022-10-19T03:48:55.980Z,33.60
2022-10-19T03:49:55.972Z,32.00
2022-10-19T03:50:55.991Z,28.40
2022-10-19T03:51:55.973Z,29.70
2022-10-19T03:52:56.011Z,25.70
2022-10-19T03:53:56.167Z,26.70
2022-10-19T03:54:55.957Z,25.30
2022-10-19T03:55:55.958Z,27.20
2022-10-19T03:56:55.955Z,25.30
2022-10-19T03:57:55.930Z,26.70
2022-10-19T03:58:55.901Z,25.40
2022-10-19T03:59:55.903Z,26.00
2022-10-19T04:00:56.655Z,26.80
2022-10-19T04:01:55.898Z,27.80
2022-10-19T04:02:55.881Z,27.80
2022-10-19T04:03:55.879Z,26.50
2022-10-19T04:04:55.875Z,23.20
2022-10-19T04:05:55.884Z,26.70
2022-10-19T04:06:55.865Z,27.90
2022-10-19T04:07:55.840Z,23.20
2022-10-19T04:08:55.839Z,29.70
2022-10-19T04:09:55.843Z,25.30
2022-10-19T04:10:55.820Z,24.90
2022-10-19T04:11:55.854Z,25.20
2022-10-19T04:12:55.802Z,26.20
2022-10-19T04:13:55.836Z,24.60
2022-10-19T04:14:57.773Z,23.80
2022-10-19T04:15:55.789Z,22.90
2022-10-19T04:16:55.769Z,25.10
2022-10-19T04:17:55.779Z,22.50
2022-10-19T04:18:55.771Z,23.70
2022-10-19T04:19:55.761Z,24.80
2022-10-19T04:20:55.747Z,25.20
2022-10-19T04:21:55.745Z,32.50
2022-10-19T04:22:55.757Z,30.20
2022-10-19T04:23:55.717Z,25.40
2022-10-19T04:24:55.872Z,30.50
2022-10-19T04:25:55.728Z,28.40
2022-10-19T04:26:55.696Z,33.90
2022-10-19T04:27:55.698Z,29.80
2022-10-19T04:28:55.752Z,31.20
2022-10-19T04:29:55.700Z,25.40
2022-10-19T04:30:55.673Z,31.60
2022-10-19T04:31:55.678Z,34.60
2022-10-19T04:32:55.670Z,39.10
2022-10-19T04:33:55.671Z,30.00
2022-10-19T04:34:55.661Z,35.90
2022-10-19T04:35:56.028Z,40.90
2022-10-19T04:36:55.672Z,36.60
2022-10-19T04:37:55.625Z,30.90
2022-10-19T04:38:55.656Z,34.00
2022-10-19T04:39:55.617Z,26.60
2022-10-19T04:40:55.597Z,31.50
2022-10-19T04:41:55.607Z,29.40
2022-10-19T04:42:55.626Z,29.00
2022-10-19T04:43:55.594Z,25.50
2022-10-19T04:44:55.604Z,30.70
2022-10-19T04:45:55.577Z,30.10
2022-10-19T04:46:55.580Z,43.90
2022-10-19T04:47:55.561Z,35.80
2022-10-19T04:48:55.578Z,33.90
2022-10-19T04:49:55.537Z,34.10
2022-10-19T04:50:55.533Z,27.90
2022-10-19T04:51:55.529Z,31.50
2022-10-19T04:52:55.528Z,28.10
2022-10-19T04:53:57.008Z,27.20
2022-10-19T04:54:55.541Z,40.30
2022-10-19T04:55:55.506Z,27.50
2022-10-19T04:56:55.524Z,28.30
2022-10-19T04:57:55.509Z,29.70
2022-10-19T04:58:55.491Z,25.00
2022-10-19T04:59:55.511Z,29.60
2022-10-19T05:00:55.524Z,23.80
2022-10-19T05:01:55.456Z,28.50
2022-10-19T05:02:55.450Z,23.60
2022-10-19T05:04:55.437Z,28.90
2022-10-19T05:05:55.435Z,30.40
2022-10-19T05:06:55.425Z,28.80
2022-10-19T05:07:55.418Z,34.20
2022-10-19T05:08:55.404Z,29.30
2022-10-19T05:09:55.401Z,24.60
2022-10-19T05:10:55.528Z,30.20
2022-10-19T05:11:55.386Z,32.20
2022-10-19T05:12:55.419Z,35.20
2022-10-19T05:13:55.376Z,26.10
2022-10-19T05:14:55.368Z,26.50
2022-10-19T05:15:55.360Z,22.70
2022-10-19T05:16:55.375Z,25.80
2022-10-19T05:17:55.339Z,24.60
2022-10-19T05:18:55.436Z,31.90
2022-10-19T05:19:55.329Z,28.30
2022-10-19T05:20:55.327Z,29.90
2022-10-19T05:21:55.317Z,26.00
2022-10-19T05:22:55.319Z,27.10
2022-10-19T05:23:55.307Z,26.50
2022-10-19T05:24:58.070Z,29.10
2022-10-19T05:25:55.283Z,28.60
2022-10-19T05:26:55.323Z,26.50
2022-10-19T05:27:55.273Z,30.10
2022-10-19T05:28:55.314Z,29.50
2022-10-19T05:29:55.314Z,30.30
2022-10-19T05:30:55.260Z,33.80
2022-10-19T05:31:56.043Z,35.60
2022-10-19T05:32:55.246Z,36.30
2022-10-19T05:33:55.349Z,31.30
2022-10-19T05:34:55.217Z,29.40
2022-10-19T05:36:00.409Z,28.30
2022-10-19T05:36:55.224Z,31.50
2022-10-19T05:37:55.207Z,26.90
2022-10-19T05:38:55.207Z,29.20
2022-10-19T05:39:55.205Z,23.50
2022-10-19T05:40:55.180Z,28.80
2022-10-19T05:41:55.192Z,26.90
2022-10-19T05:42:55.188Z,27.60
2022-10-19T05:43:55.160Z,29.90
2022-10-19T05:44:55.158Z,29.80
2022-10-19T05:45:55.147Z,32.90
2022-10-19T05:46:55.679Z,32.60
2022-10-19T05:47:55.142Z,28.00
2022-10-19T05:48:55.123Z,27.80
2022-10-19T05:49:55.115Z,28.30
2022-10-19T05:50:55.119Z,30.60
2022-10-19T05:51:55.872Z,27.90
2022-10-19T05:52:55.111Z,25.60
2022-10-19T05:53:55.099Z,26.10
2022-10-19T05:54:55.087Z,28.50
2022-10-19T05:55:55.191Z,31.20
2022-10-19T05:56:55.079Z,27.50
2022-10-19T05:57:55.068Z,28.00
2022-10-19T05:58:55.113Z,27.30
2022-10-19T05:59:55.066Z,28.70
2022-10-19T06:00:55.727Z,29.50
2022-10-19T06:01:55.082Z,30.30
2022-10-19T06:02:59.101Z,26.60
2022-10-19T06:03:55.021Z,29.00
2022-10-19T06:04:55.022Z,27.40
2022-10-19T06:05:55.004Z,28.40
2022-10-19T06:06:55.026Z,27.70
2022-10-19T06:07:55.008Z,27.30
2022-10-19T06:08:54.990Z,28.50
2022-10-19T06:09:54.992Z,28.30
2022-10-19T06:10:54.980Z,27.70
2022-10-19T06:11:54.977Z,26.60
2022-10-19T06:12:54.964Z,28.70
2022-10-19T06:13:54.951Z,29.80
2022-10-19T06:14:54.985Z,28.10
2022-10-19T06:15:54.942Z,29.70
2022-10-19T06:16:54.995Z,29.70
2022-10-19T06:17:54.931Z,27.00
2022-10-19T06:18:54.939Z,28.50
2022-10-19T06:19:54.919Z,28.10
2022-10-19T06:20:54.910Z,30.00
2022-10-19T06:21:54.895Z,30.10
2022-10-19T06:22:54.883Z,27.90
2022-10-19T06:23:54.898Z,30.80
2022-10-19T06:24:54.883Z,28.50
2022-10-19T06:25:54.863Z,27.10
2022-10-19T06:26:54.858Z,25.50
2022-10-19T06:27:54.901Z,26.10
2022-10-19T06:28:55.598Z,24.50
2022-10-19T06:29:54.842Z,25.00
2022-10-19T06:30:54.921Z,25.00
2022-10-19T06:31:54.820Z,24.90
2022-10-19T06:32:54.894Z,26.20
2022-10-19T06:33:56.018Z,25.30
2022-10-19T06:34:56.527Z,26.10
2022-10-19T06:35:54.811Z,26.90
2022-10-19T06:36:54.778Z,26.30
2022-10-19T06:37:54.777Z,29.00
2022-10-19T06:38:54.790Z,27.70
2022-10-19T06:39:54.841Z,28.00
2022-10-19T06:40:54.759Z,29.10
2022-10-19T06:41:54.747Z,27.30
2022-10-19T06:42:54.734Z,27.20
2022-10-19T06:43:54.732Z,28.50
2022-10-19T06:44:54.730Z,31.40
2022-10-19T06:45:54.726Z,30.10
2022-10-19T06:46:54.732Z,31.80
2022-10-19T06:47:54.712Z,28.90
2022-10-19T06:48:54.695Z,28.80
2022-10-19T06:49:54.697Z,28.00
2022-10-19T06:50:54.704Z,30.30
2022-10-19T06:51:54.703Z,28.90
2022-10-19T06:52:54.674Z,28.90
2022-10-19T06:53:57.004Z,25.40
2022-10-19T06:54:54.650Z,28.40
2022-10-19T06:55:54.639Z,28.20
2022-10-19T06:56:54.649Z,26.40
2022-10-19T06:57:54.641Z,26.40
2022-10-19T06:58:54.640Z,24.00
2022-10-19T06:59:54.633Z,26.00
2022-10-19T07:00:54.667Z,22.80
2022-10-19T07:01:54.619Z,23.00
2022-10-19T07:02:54.622Z,24.50
2022-10-19T07:03:54.651Z,24.30
2022-10-19T07:04:54.595Z,24.10
2022-10-19T07:05:54.577Z,23.90
2022-10-19T07:06:54.602Z,27.40
2022-10-19T07:07:54.633Z,24.40
2022-10-19T07:08:54.568Z,22.30
2022-10-19T07:09:54.572Z,23.30
2022-10-19T07:10:54.550Z,23.60
2022-10-19T07:11:54.550Z,25.50
2022-10-19T07:12:54.627Z,24.00
2022-10-19T07:13:54.519Z,24.00
2022-10-19T07:14:54.520Z,23.30
2022-10-19T07:15:54.529Z,24.70
2022-10-19T07:16:54.524Z,25.90
2022-10-19T07:17:54.502Z,25.20
2022-10-19T07:18:54.511Z,26.00
2022-10-19T07:19:54.534Z,26.00
2022-10-19T07:20:54.484Z,25.10
2022-10-19T07:21:54.475Z,24.10
2022-10-19T07:22:54.464Z,22.50
2022-10-19T07:23:54.488Z,23.20
2022-10-19T07:24:54.451Z,20.70
2022-10-19T07:25:54.437Z,21.10
2022-10-19T07:26:54.436Z,23.80
2022-10-19T07:27:54.426Z,23.40
2022-10-19T07:28:54.415Z,20.90
2022-10-19T07:29:54.431Z,20.00
2022-10-19T07:30:55.134Z,21.10
2022-10-19T07:31:54.401Z,21.10
2022-10-19T07:32:54.430Z,21.90
2022-10-19T07:33:54.382Z,21.60
2022-10-19T07:34:54.425Z,21.50
2022-10-19T07:35:54.373Z,22.10
2022-10-19T07:36:54.412Z,20.90
2022-10-19T07:37:54.361Z,24.00
2022-10-19T07:38:54.351Z,21.80
2022-10-19T07:39:54.355Z,23.40
2022-10-19T07:40:54.346Z,24.60
2022-10-19T07:41:54.341Z,20.90
2022-10-19T07:42:54.339Z,23.00
2022-10-19T07:43:54.321Z,23.20
2022-10-19T07:44:54.304Z,22.40
2022-10-19T07:45:54.323Z,21.90
2022-10-19T07:46:54.304Z,22.10
2022-10-19T07:47:54.288Z,21.70
2022-10-19T07:48:54.328Z,22.30
2022-10-19T07:49:54.270Z,23.90
2022-10-19T07:50:54.281Z,22.30
2022-10-19T07:51:54.331Z,24.60
2022-10-19T07:52:54.920Z,21.80
2022-10-19T07:53:54.246Z,19.00
2022-10-19T07:54:54.248Z,20.40
2022-10-19T07:55:54.241Z,22.60
2022-10-19T07:56:54.218Z,20.30
2022-10-19T07:57:54.220Z,21.20
2022-10-19T07:58:54.233Z,20.50
2022-10-19T07:59:54.199Z,17.70
2022-10-19T08:00:54.198Z,17.90
2022-10-19T08:01:54.262Z,17.90
2022-10-19T08:03:00.056Z,16.40
2022-10-19T08:05:01.057Z,16.00
2022-10-19T08:05:55.159Z,20.30
2022-10-19T08:06:54.176Z,15.90
2022-10-19T08:07:54.138Z,16.30
2022-10-19T08:08:54.219Z,17.60
2022-10-19T08:09:54.525Z,15.30
2022-10-19T08:10:54.139Z,13.70
2022-10-19T08:11:54.118Z,14.60
2022-10-19T08:12:54.110Z,15.90
2022-10-19T08:13:54.100Z,15.30
2022-10-19T08:14:54.106Z,14.50
2022-10-19T08:15:54.095Z,15.90
2022-10-19T08:16:54.086Z,13.40
2022-10-19T08:17:54.087Z,14.90
2022-10-19T08:18:54.087Z,15.60
2022-10-19T08:19:54.494Z,14.20
2022-10-19T08:20:54.057Z,14.00
2022-10-19T08:21:54.049Z,14.00
2022-10-19T08:22:57.938Z,14.90
2022-10-19T08:23:55.037Z,14.30
2022-10-19T08:24:54.033Z,14.20
2022-10-19T08:25:54.024Z,13.50
2022-10-19T08:26:54.246Z,15.00
2022-10-19T08:27:54.008Z,14.10
2022-10-19T08:28:53.990Z,13.50
2022-10-19T08:29:54.002Z,13.10
2022-10-19T08:30:53.987Z,11.70
2022-10-19T08:31:54.076Z,13.50
2022-10-19T08:32:53.971Z,11.20
2022-10-19T08:33:53.962Z,12.50
2022-10-19T08:34:53.970Z,10.20
2022-10-19T08:35:53.980Z,10.90
2022-10-19T08:36:53.960Z,12.30
2022-10-19T08:37:54.343Z,13.50
2022-10-19T08:38:53.956Z,11.20
2022-10-19T08:39:53.948Z,11.90
2022-10-19T08:40:53.916Z,11.90
2022-10-19T08:41:54.769Z,11.30
2022-10-19T08:42:53.905Z,12.80
2022-10-19T08:43:53.897Z,11.30
2022-10-19T08:44:53.897Z,11.60
2022-10-19T08:45:53.883Z,10.60
2022-10-19T08:46:53.889Z,10.80
2022-10-19T08:47:53.869Z,10.40
2022-10-19T08:48:53.863Z,10.60
2022-10-19T08:49:54.164Z,10.30
2022-10-19T08:50:53.855Z,11.20
2022-10-19T08:51:53.834Z,9.50
2022-10-19T08:52:53.837Z,9.40
2022-10-19T08:53:53.824Z,10.80
2022-10-19T08:54:53.844Z,9.70
2022-10-19T08:55:54.132Z,10.50
2022-10-19T08:56:53.821Z,10.20
2022-10-19T08:57:53.797Z,9.60
2022-10-19T08:58:53.798Z,9.80
2022-10-19T08:59:53.793Z,9.10
2022-10-19T09:00:53.792Z,8.00
2022-10-19T09:01:53.771Z,8.80
2022-10-19T09:02:53.768Z,8.40
2022-10-19T09:03:56.207Z,7.80
2022-10-19T09:04:53.771Z,8.30
2022-10-19T09:05:53.767Z,7.60
2022-10-19T09:06:53.734Z,6.30
2022-10-19T09:07:53.730Z,7.40
2022-10-19T09:08:53.806Z,6.30
2022-10-19T09:09:53.742Z,7.00
2022-10-19T09:10:53.771Z,6.70
2022-10-19T09:11:53.700Z,7.50
2022-10-19T09:12:56.377Z,7.00
2022-10-19T09:14:04.727Z,7.90
2022-10-19T09:14:54.700Z,7.30
2022-10-19T09:15:53.674Z,7.50
2022-10-19T09:16:53.710Z,7.30
2022-10-19T09:17:53.662Z,6.70
2022-10-19T09:19:53.642Z,6.20
2022-10-19T09:20:54.066Z,7.10
2022-10-19T09:21:53.625Z,7.50
2022-10-19T09:22:53.626Z,7.80
2022-10-19T09:23:53.621Z,7.30
2022-10-19T09:24:53.610Z,6.40
2022-10-19T09:25:53.616Z,7.00
2022-10-19T09:26:53.623Z,7.20
2022-10-19T09:27:53.664Z,8.00
2022-10-19T09:28:53.582Z,7.20
2022-10-19T09:29:53.569Z,7.20
2022-10-19T09:30:53.577Z,6.80
2022-10-19T09:31:53.612Z,7.10
2022-10-19T09:32:53.642Z,7.50
2022-10-19T09:33:53.995Z,7.10
2022-10-19T09:34:53.541Z,6.40
2022-10-19T09:35:53.569Z,6.00
2022-10-19T09:36:53.623Z,6.30
2022-10-19T09:37:53.559Z,5.80
2022-10-19T09:38:53.522Z,6.20
2022-10-19T09:39:54.972Z,7.30
2022-10-19T09:40:53.500Z,7.20
2022-10-19T09:41:53.808Z,6.30
2022-10-19T09:42:54.469Z,7.00
2022-10-19T09:43:53.913Z,6.80
2022-10-19T09:44:53.467Z,6.30
2022-10-19T09:45:53.466Z,6.50
2022-10-19T09:46:53.482Z,6.20
2022-10-19T09:47:53.453Z,6.60
2022-10-19T09:48:53.523Z,6.20
2022-10-19T09:49:53.990Z,6.80
2022-10-19T09:50:53.528Z,6.70
2022-10-19T09:51:53.440Z,6.10
2022-10-19T09:52:53.480Z,6.00
2022-10-19T09:53:54.564Z,6.70
2022-10-19T09:54:53.437Z,5.80
2022-10-19T09:55:53.927Z,5.80
2022-10-19T09:56:53.382Z,6.30
2022-10-19T09:57:53.398Z,5.90
2022-10-19T09:58:53.402Z,5.30
2022-10-19T09:59:53.354Z,5.40
2022-10-19T10:00:53.882Z,5.20
2022-10-19T10:01:53.440Z,5.60
2022-10-19T10:02:53.370Z,5.70
2022-10-19T10:03:55.871Z,5.80
2022-10-19T10:04:53.377Z,5.50
2022-10-19T10:05:54.468Z,5.90
2022-10-19T10:06:53.713Z,6.30
2022-10-19T10:07:53.805Z,5.80
2022-10-19T10:08:53.375Z,6.10
2022-10-19T10:09:53.342Z,5.30
2022-10-19T10:10:53.301Z,4.80
2022-10-19T10:12:53.314Z,5.30
2022-10-19T10:13:53.296Z,4.80
2022-10-19T10:14:53.282Z,5.80
2022-10-19T10:15:53.277Z,4.80
2022-10-19T10:16:53.239Z,4.90
2022-10-19T10:17:53.261Z,5.00
2022-10-19T10:18:53.246Z,5.20
2022-10-19T10:19:53.207Z,4.40
2022-10-19T10:20:53.302Z,4.10
2022-10-19T10:21:53.258Z,4.80
2022-10-19T10:22:53.232Z,3.90
2022-10-19T10:23:53.230Z,4.00
2022-10-19T10:24:53.282Z,3.40
2022-10-19T10:25:53.255Z,3.80
2022-10-19T10:26:53.232Z,3.70
2022-10-19T10:27:53.247Z,3.70
2022-10-19T10:28:53.890Z,3.70
2022-10-19T10:29:53.213Z,4.20
2022-10-19T10:30:53.211Z,4.10
2022-10-19T10:31:53.185Z,4.80
2022-10-19T10:32:53.178Z,4.80
2022-10-19T10:34:56.904Z,5.10
2022-10-19T10:35:54.120Z,4.80
2022-10-19T10:36:53.195Z,4.60
2022-10-19T10:37:53.119Z,4.60
2022-10-19T10:38:53.250Z,5.50
2022-10-19T10:39:53.110Z,5.60
2022-10-19T10:40:53.139Z,4.30
2022-10-19T10:41:53.110Z,4.10
2022-10-19T10:42:53.127Z,4.60
2022-10-19T10:43:53.257Z,5.20
2022-10-19T10:44:53.091Z,4.90
2022-10-19T10:45:53.063Z,4.80
2022-10-19T10:46:53.072Z,3.40
2022-10-19T10:47:53.063Z,3.50
2022-10-19T10:48:53.484Z,3.50
2022-10-19T10:49:53.112Z,3.90
2022-10-19T10:50:53.081Z,2.90
2022-10-19T10:51:53.258Z,3.30
2022-10-19T10:52:53.032Z,3.30
2022-10-19T10:53:52.997Z,3.50
2022-10-19T10:54:53.066Z,3.80
2022-10-19T10:55:53.075Z,4.00
2022-10-19T10:56:53.046Z,4.20
2022-10-19T10:57:52.972Z,4.70
2022-10-19T10:58:53.222Z,4.70
2022-10-19T10:59:53.004Z,4.40
2022-10-19T11:00:53.056Z,4.30
2022-10-19T11:01:53.019Z,5.10
2022-10-19T11:02:52.995Z,4.90
2022-10-19T11:03:53.032Z,4.70
2022-10-19T11:04:52.990Z,4.20
2022-10-19T11:05:52.977Z,4.20
2022-10-19T11:06:52.943Z,4.30
2022-10-19T11:07:52.929Z,4.50
2022-10-19T11:08:52.956Z,4.80
2022-10-19T11:09:52.962Z,4.30
2022-10-19T11:10:52.878Z,4.30
2022-10-19T11:11:52.895Z,4.00
2022-10-19T11:12:53.495Z,4.00
2022-10-19T11:13:52.866Z,4.10
2022-10-19T11:14:52.874Z,3.70
2022-10-19T11:15:52.896Z,4.00
2022-10-19T11:16:52.888Z,4.00
2022-10-19T11:17:52.863Z,3.00
2022-10-19T11:18:52.859Z,3.50
2022-10-19T11:19:52.911Z,3.20
2022-10-19T11:20:52.885Z,2.90
2022-10-19T11:21:52.819Z,2.90
2022-10-19T11:22:52.850Z,2.70
2022-10-19T11:23:52.867Z,2.70
2022-10-19T11:24:52.834Z,2.40
2022-10-19T11:25:52.999Z,2.30
2022-10-19T11:26:52.770Z,2.20
2022-10-19T11:27:52.894Z,3.20
2022-10-19T11:28:52.794Z,2.90
2022-10-19T11:29:52.893Z,2.30
2022-10-19T11:30:52.751Z,2.60
2022-10-19T11:31:52.803Z,2.80
2022-10-19T11:32:52.739Z,2.40
2022-10-19T11:33:52.749Z,2.50
2022-10-19T11:34:52.820Z,2.90
2022-10-19T11:35:52.745Z,2.70
2022-10-19T11:36:52.746Z,2.10
2022-10-19T11:38:17.335Z,2.20
2022-10-19T11:38:53.733Z,2.60
2022-10-19T11:39:52.777Z,2.50
2022-10-19T11:41:16.416Z,2.50
2022-10-19T11:41:53.696Z,3.00
2022-10-19T11:42:52.832Z,2.60
2022-10-19T11:43:52.724Z,2.30
2022-10-19T11:44:52.677Z,2.50
2022-10-19T11:45:52.677Z,1.90
2022-10-19T11:46:52.647Z,1.70
2022-10-19T11:47:52.731Z,1.90
2022-10-19T11:48:54.808Z,1.60
2022-10-19T11:49:52.657Z,1.30
2022-10-19T11:50:54.567Z,3.00
2022-10-19T11:51:53.632Z,1.70
2022-10-19T11:52:52.604Z,1.20
2022-10-19T11:53:52.645Z,1.40
2022-10-19T11:54:52.634Z,1.10
2022-10-19T11:55:52.627Z,1.30
2022-10-19T11:57:04.960Z,1.30
2022-10-19T11:57:53.568Z,1.50
2022-10-19T11:58:52.570Z,0.90
2022-10-19T11:59:52.660Z,1.20
2022-10-19T12:00:52.553Z,1.60
2022-10-19T12:01:52.595Z,0.90
2022-10-19T12:02:52.559Z,0.80
2022-10-19T12:03:52.542Z,1.10
2022-10-19T12:04:52.529Z,1.30
2022-10-19T12:05:52.564Z,1.20
2022-10-19T12:06:53.001Z,0.80
2022-10-19T12:07:52.525Z,0.70
2022-10-19T12:08:55.354Z,0.80
2022-10-19T12:09:52.543Z,0.70
2022-10-19T12:10:52.497Z,0.90
2022-10-19T12:11:52.472Z,0.80
2022-10-19T12:12:52.564Z,0.90
2022-10-19T12:13:52.521Z,0.90
2022-10-19T12:14:52.487Z,0.80
2022-10-19T12:15:53.672Z,0.80
2022-10-19T12:16:52.436Z,0.50
2022-10-19T12:17:52.490Z,0.90
2022-10-19T12:18:52.426Z,1.40
2022-10-19T12:19:53.068Z,1.10
2022-10-19T12:20:52.451Z,0.90
2022-10-19T12:21:52.407Z,0.80
2022-10-19T12:22:52.460Z,1.00
2022-10-19T12:23:52.384Z,0.80
2022-10-19T12:24:52.409Z,1.10
2022-10-19T12:25:52.378Z,0.90
2022-10-19T12:26:52.463Z,1.00
2022-10-19T12:27:52.379Z,0.90
2022-10-19T12:28:52.385Z,0.80
2022-10-19T12:29:52.356Z,0.90
2022-10-19T12:30:52.428Z,0.80
2022-10-19T12:31:52.352Z,1.40
2022-10-19T12:32:54.258Z,1.30
2022-10-19T12:33:52.410Z,1.00
2022-10-19T12:34:52.699Z,1.20
2022-10-19T12:35:52.315Z,0.90
2022-10-19T12:36:52.338Z,1.60
2022-10-19T12:37:52.293Z,0.90
2022-10-19T12:39:00.087Z,0.80
2022-10-19T12:39:53.341Z,0.80
2022-10-19T12:40:52.276Z,1.10
2022-10-19T12:41:52.283Z,0.90
2022-10-19T12:42:52.310Z,1.40
2022-10-19T12:43:52.521Z,1.30
2022-10-19T12:44:54.966Z,1.30
2022-10-19T12:45:53.312Z,0.90
2022-10-19T12:46:53.080Z,1.70
2022-10-19T12:47:52.280Z,1.30
2022-10-19T12:48:52.307Z,1.50
2022-10-19T12:49:52.267Z,1.40
2022-10-19T12:50:52.285Z,1.40
2022-10-19T12:51:52.281Z,1.50
2022-10-19T12:52:52.230Z,1.50
2022-10-19T12:53:52.193Z,1.00
2022-10-19T12:54:52.279Z,1.20
2022-10-19T12:55:52.198Z,1.10
2022-10-19T12:56:52.164Z,1.40
2022-10-19T12:57:52.183Z,1.30
2022-10-19T12:58:52.242Z,1.70
2022-10-19T12:59:52.264Z,1.20
2022-10-19T13:00:52.522Z,1.20
2022-10-19T13:01:52.133Z,1.30
2022-10-19T13:02:52.238Z,1.10
2022-10-19T13:03:52.131Z,1.20
2022-10-19T13:04:52.160Z,1.20
2022-10-19T13:05:52.167Z,1.50
2022-10-19T13:06:52.185Z,1.50
2022-10-19T13:07:52.163Z,2.00